Time;durP1;ratioP1;P1;durP2;ratioP2;P2;SDS_P1;SDS_P2;PMS_P1;PMS_P2;Temp;Humidity;BMP_temperature;BMP_pressure;BME280_temperature;BME280_humidity;BME280_pressure;Samples;Min_cycle;Max_cycle;Signal;HPM_P1;HPM_P2
2021/06/08 00:00:12;;;;;;;17.25;14.32;;;;;;;;;;5058989;28;20702;-72
2021/06/08 00:02:37;;;;;;;17.15;14.30;;;;;;;;;;5061020;28;20205;-72
2021/06/08 00:05:03;;;;;;;18.55;15.23;;;;;;;;;;5063131;28;20178;-72
2021/06/08 00:07:28;;;;;;;18.63;15.50;;;;;;;;;;5054914;28;20184;-72
2021/06/08 00:09:53;;;;;;;17.08;14.15;;;;;;;;;;5061710;28;20256;-72
2021/06/08 00:12:18;;;;;;;19.92;14.77;;;;;;;;;;5063403;28;20176;-70
2021/06/08 00:14:43;;;;;;;17.02;14.10;;;;;;;;;;5059950;28;20208;-71
2021/06/08 00:17:09;;;;;;;17.33;14.43;;;;;;;;;;5060824;28;21999;-71
2021/06/08 00:19:34;;;;;;;15.73;13.93;;;;;;;;;;5062157;28;20188;-72
2021/06/08 00:21:59;;;;;;;16.63;13.55;;;;;;;;;;5058300;28;20216;-72
2021/06/08 00:24:24;;;;;;;15.48;13.80;;;;;;;;;;5062264;28;20197;-72
2021/06/08 00:26:49;;;;;;;17.02;14.55;;;;;;;;;;5064475;28;20451;-72
2021/06/08 00:29:15;;;;;;;16.10;14.20;;;;;;;;;;5058913;28;20745;-72
2021/06/08 00:31:40;;;;;;;18.80;14.55;;;;;;;;;;5063191;28;20192;-71
2021/06/08 00:34:05;;;;;;;18.55;13.95;;;;;;;;;;5058852;28;20206;-72
2021/06/08 00:36:30;;;;;;;14.73;13.23;;;;;;;;;;5069130;28;20587;-72
2021/06/08 00:38:55;;;;;;;14.52;13.00;;;;;;;;;;5064021;28;20250;-72
2021/06/08 00:41:31;;;;;;;15.33;13.10;;;;;;;;;;5057324;28;20217;-73
2021/06/08 00:44:00;;;;;;;17.23;13.85;;;;;;;;;;5057549;28;20982;-72
2021/06/08 00:46:26;;;;;;;16.90;12.77;;;;;;;;;;5066026;28;20529;-72
2021/06/08 00:48:51;;;;;;;14.98;13.10;;;;;;;;;;5059831;28;20184;-71
2021/06/08 00:51:16;;;;;;;14.68;13.18;;;;;;;;;;5068257;28;20242;-72
2021/06/08 00:53:41;;;;;;;15.45;13.05;;;;;;;;;;5063910;28;20930;-71
2021/06/08 00:56:06;;;;;;;13.48;12.05;;;;;;;;;;5068130;28;20181;-71
2021/06/08 00:58:31;;;;;;;14.27;12.52;;;;;;;;;;5065278;28;20180;-72
2021/06/08 01:00:57;;;;;;;16.67;13.98;;;;;;;;;;5069151;28;20197;-73
2021/06/08 01:03:22;;;;;;;18.70;13.60;;;;;;;;;;5066976;28;20208;-71
2021/06/08 01:05:47;;;;;;;14.30;12.88;;;;;;;;;;5069994;28;20177;-71
2021/06/08 01:08:12;;;;;;;19.17;12.65;;;;;;;;;;5065668;28;20530;-71
2021/06/08 01:10:37;;;;;;;16.58;13.35;;;;;;;;;;5060144;28;20228;-71
2021/06/08 01:13:02;;;;;;;15.52;13.43;;;;;;;;;;5065558;28;20283;-72
2021/06/08 01:15:28;;;;;;;14.93;13.48;;;;;;;;;;5068552;28;20181;-71
2021/06/08 01:17:53;;;;;;;15.95;13.45;;;;;;;;;;5062538;28;20599;-71
2021/06/08 01:20:18;;;;;;;15.20;13.43;;;;;;;;;;5058503;28;20209;-72
2021/06/08 01:22:44;;;;;;;14.85;12.20;;;;;;;;;;5059819;28;20193;-71
2021/06/08 01:25:10;;;;;;;15.10;12.85;;;;;;;;;;5063708;28;20248;-71
2021/06/08 01:27:35;;;;;;;16.02;12.80;;;;;;;;;;5066520;28;20555;-71
2021/06/08 01:30:00;;;;;;;15.23;12.07;;;;;;;;;;5067343;28;20174;-72
2021/06/08 01:32:27;;;;;;;14.32;11.80;;;;;;;;;;5060366;28;20707;-72
2021/06/08 01:34:53;;;;;;;17.73;13.88;;;;;;;;;;5050550;28;20201;-72
2021/06/08 01:37:19;;;;;;;13.43;12.02;;;;;;;;;;5050097;28;20193;-73
2021/06/08 01:39:46;;;;;;;13.05;11.60;;;;;;;;;;5055104;28;20185;-72
2021/06/08 01:42:12;;;;;;;17.45;13.02;;;;;;;;;;5061134;28;20658;-72
2021/06/08 01:44:39;;;;;;;13.35;11.70;;;;;;;;;;5057096;28;20209;-72
2021/06/08 01:47:05;;;;;;;19.77;13.00;;;;;;;;;;5066539;28;20238;-72
2021/06/08 01:49:30;;;;;;;12.73;11.43;;;;;;;;;;5064713;28;20181;-72
2021/06/08 01:51:58;;;;;;;14.40;12.07;;;;;;;;;;5066637;28;20196;-73
2021/06/08 01:54:28;;;;;;;14.10;12.02;;;;;;;;;;5051204;28;20208;-72
2021/06/08 01:57:03;;;;;;;14.10;12.35;;;;;;;;;;5067399;28;20195;-71
2021/06/08 01:59:35;;;;;;;14.63;13.05;;;;;;;;;;5060179;28;20646;-71
2021/06/08 02:02:00;;;;;;;15.50;12.57;;;;;;;;;;5062785;28;20204;-72
2021/06/08 02:04:26;;;;;;;16.05;12.15;;;;;;;;;;5066532;28;20193;-72
2021/06/08 02:07:12;;;;;;;14.40;12.93;;;;;;;;;;5058383;28;20270;-73
2021/06/08 02:09:37;;;;;;;17.50;13.10;;;;;;;;;;5047363;28;20677;-72
2021/06/08 02:12:04;;;;;;;12.95;11.65;;;;;;;;;;5067057;28;20217;-72
2021/06/08 02:14:46;;;;;;;14.02;12.57;;;;;;;;;;5053513;28;20252;-72
2021/06/08 02:17:23;;;;;;;14.23;12.70;;;;;;;;;;5069291;28;20181;-72
2021/06/08 02:19:48;;;;;;;16.08;12.90;;;;;;;;;;5063775;28;20177;-72
2021/06/08 02:22:14;;;;;;;16.35;13.65;;;;;;;;;;5062134;28;20181;-72
2021/06/08 02:24:43;;;;;;;14.18;12.05;;;;;;;;;;5054981;28;20201;-72
2021/06/08 02:27:09;;;;;;;13.77;12.00;;;;;;;;;;5058037;28;20177;-72
2021/06/08 02:29:35;;;;;;;13.07;11.68;;;;;;;;;;5057914;28;20651;-72
2021/06/08 02:32:01;;;;;;;14.77;12.75;;;;;;;;;;5060065;28;20338;-72
2021/06/08 02:34:27;;;;;;;13.63;11.80;;;;;;;;;;5069554;28;20715;-72
2021/06/08 02:36:53;;;;;;;14.80;12.10;;;;;;;;;;5065619;28;20215;-72
2021/06/08 02:39:18;;;;;;;15.27;13.68;;;;;;;;;;5059072;28;20203;-72
2021/06/08 02:41:44;;;;;;;15.90;12.75;;;;;;;;;;5064190;28;20585;-72
2021/06/08 02:44:09;;;;;;;13.68;12.27;;;;;;;;;;5058325;28;20197;-72
2021/06/08 02:46:35;;;;;;;14.18;12.77;;;;;;;;;;5057642;28;20623;-72
2021/06/08 02:49:01;;;;;;;14.50;12.82;;;;;;;;;;5063605;28;20176;-72
2021/06/08 02:51:26;;;;;;;14.27;12.50;;;;;;;;;;5062458;28;20193;-72
2021/06/08 02:53:53;;;;;;;14.20;12.55;;;;;;;;;;5061919;28;20209;-72
2021/06/08 02:56:18;;;;;;;13.52;12.02;;;;;;;;;;5055458;28;20323;-72
2021/06/08 02:58:44;;;;;;;13.80;12.07;;;;;;;;;;5059033;28;20332;-72
2021/06/08 03:01:12;;;;;;;16.03;12.33;;;;;;;;;;5054062;28;20189;-70
2021/06/08 03:03:39;;;;;;;14.23;11.93;;;;;;;;;;5062719;28;20679;-71
2021/06/08 03:06:13;;;;;;;14.43;11.90;;;;;;;;;;5058306;28;20729;-71
2021/06/08 03:08:48;;;;;;;13.73;12.33;;;;;;;;;;5054525;28;20177;-71
2021/06/08 03:11:15;;;;;;;13.50;12.00;;;;;;;;;;5054751;28;20259;-71
2021/06/08 03:13:41;;;;;;;14.37;11.90;;;;;;;;;;5059050;28;20216;-71
2021/06/08 03:16:08;;;;;;;15.67;12.13;;;;;;;;;;5055290;28;20184;-71
2021/06/08 03:18:34;;;;;;;14.07;12.00;;;;;;;;;;5056838;28;20185;-71
2021/06/08 03:21:01;;;;;;;13.43;11.77;;;;;;;;;;5058282;28;20221;-72
2021/06/08 03:23:28;;;;;;;14.80;13.20;;;;;;;;;;5056744;28;20335;-71
2021/06/08 03:25:54;;;;;;;14.47;12.93;;;;;;;;;;5050184;28;20182;-71
2021/06/08 03:28:20;;;;;;;15.67;12.33;;;;;;;;;;5057070;28;20324;-72
2021/06/08 03:30:46;;;;;;;13.60;12.20;;;;;;;;;;5063646;28;20193;-71
2021/06/08 03:33:12;;;;;;;15.30;13.17;;;;;;;;;;5054551;28;20206;-72
2021/06/08 03:35:37;;;;;;;14.00;12.57;;;;;;;;;;5055576;28;20196;-72
2021/06/08 03:38:03;;;;;;;13.50;12.20;;;;;;;;;;5050044;28;20227;-71
2021/06/08 03:40:29;;;;;;;13.33;11.93;;;;;;;;;;5062150;28;20220;-71
2021/06/08 03:42:54;;;;;;;13.80;12.50;;;;;;;;;;5062499;28;20279;-71
2021/06/08 03:45:20;;;;;;;15.07;12.05;;;;;;;;;;5063340;28;20178;-72
2021/06/08 03:47:45;;;;;;;13.60;12.13;;;;;;;;;;5065798;28;20528;-71
2021/06/08 03:50:12;;;;;;;14.33;12.83;;;;;;;;;;5063165;28;20192;-71
2021/06/08 03:52:38;;;;;;;13.93;12.50;;;;;;;;;;5065068;28;20249;-71
2021/06/08 03:55:04;;;;;;;13.80;11.97;;;;;;;;;;5061671;28;20188;-71
2021/06/08 03:57:32;;;;;;;14.17;12.50;;;;;;;;;;5061778;28;20260;-72
2021/06/08 03:59:57;;;;;;;14.20;12.70;;;;;;;;;;5060485;28;20535;-72
2021/06/08 04:02:23;;;;;;;14.97;12.50;;;;;;;;;;5056693;28;20173;-72
2021/06/08 04:04:48;;;;;;;14.47;12.47;;;;;;;;;;5060519;28;20565;-72
2021/06/08 04:07:14;;;;;;;14.20;12.80;;;;;;;;;;5056514;28;20177;-72
2021/06/08 04:09:39;;;;;;;13.87;12.23;;;;;;;;;;5063440;28;20873;-72
2021/06/08 04:12:05;;;;;;;14.90;12.73;;;;;;;;;;5060027;28;20185;-73
2021/06/08 04:14:30;;;;;;;13.87;12.43;;;;;;;;;;5061479;28;20205;-72
2021/06/08 04:16:55;;;;;;;17.02;13.18;;;;;;;;;;5060465;28;20234;-73
2021/06/08 04:19:21;;;;;;;12.63;11.32;;;;;;;;;;5060287;28;20182;-72
2021/06/08 04:21:51;;;;;;;12.82;11.45;;;;;;;;;;5062671;28;20204;-72
2021/06/08 04:24:16;;;;;;;14.30;11.18;;;;;;;;;;5057964;28;20189;-72
2021/06/08 04:26:42;;;;;;;11.85;10.65;;;;;;;;;;5059552;28;20207;-72
2021/06/08 04:29:07;;;;;;;11.25;9.80;;;;;;;;;;5054258;28;20205;-71
2021/06/08 04:31:33;;;;;;;10.70;9.55;;;;;;;;;;5059877;28;20681;-71
2021/06/08 04:33:58;;;;;;;10.90;9.52;;;;;;;;;;5052973;28;20210;-72
2021/06/08 04:36:24;;;;;;;10.50;9.50;;;;;;;;;;5065356;28;20247;-72
2021/06/08 04:38:50;;;;;;;11.13;9.63;;;;;;;;;;5051166;28;20563;-71
2021/06/08 04:41:15;;;;;;;9.80;8.80;;;;;;;;;;5056423;28;20226;-72
2021/06/08 04:43:41;;;;;;;10.25;9.35;;;;;;;;;;5061491;28;20197;-71
2021/06/08 04:46:07;;;;;;;10.57;9.57;;;;;;;;;;5057754;28;20215;-71
2021/06/08 04:48:33;;;;;;;9.50;8.60;;;;;;;;;;5062907;28;20219;-71
2021/06/08 04:50:59;;;;;;;10.80;9.80;;;;;;;;;;5061836;28;20219;-71
2021/06/08 04:53:24;;;;;;;10.90;9.65;;;;;;;;;;5058661;28;20344;-71
2021/06/08 04:55:49;;;;;;;10.60;9.60;;;;;;;;;;5061121;28;20209;-72
2021/06/08 04:58:15;;;;;;;10.15;9.15;;;;;;;;;;5058929;28;20177;-71
2021/06/08 05:00:58;;;;;;;10.40;9.32;;;;;;;;;;5059382;28;20697;-72
2021/06/08 05:03:25;;;;;;;10.20;9.25;;;;;;;;;;5057185;28;20608;-72
2021/06/08 05:05:52;;;;;;;13.45;9.48;;;;;;;;;;5055814;28;20663;-71
2021/06/08 05:08:17;;;;;;;10.88;9.57;;;;;;;;;;5058500;28;20193;-71
2021/06/08 05:10:46;;;;;;;9.88;8.85;;;;;;;;;;5060304;28;20173;-74
2021/06/08 05:13:11;;;;;;;10.20;9.18;;;;;;;;;;5058423;28;20468;-73
2021/06/08 05:15:38;;;;;;;9.88;8.98;;;;;;;;;;5063394;28;20181;-73
2021/06/08 05:18:06;;;;;;;9.32;8.38;;;;;;;;;;5067748;28;20662;-71
2021/06/08 05:20:31;;;;;;;11.63;8.48;;;;;;;;;;5069085;28;20560;-71
2021/06/08 05:22:57;;;;;;;11.32;9.07;;;;;;;;;;5072057;28;20204;-72
2021/06/08 05:25:22;;;;;;;9.93;8.93;;;;;;;;;;5064299;28;20563;-71
2021/06/08 05:27:48;;;;;;;9.63;8.13;;;;;;;;;;5060390;28;20186;-72
2021/06/08 05:30:13;;;;;;;10.00;8.73;;;;;;;;;;5063895;28;20228;-71
2021/06/08 05:32:39;;;;;;;8.68;7.63;;;;;;;;;;5062926;28;20189;-71
2021/06/08 05:35:08;;;;;;;8.90;8.10;;;;;;;;;;5053974;28;20250;-71
2021/06/08 05:37:40;;;;;;;8.65;7.80;;;;;;;;;;5063874;28;20268;-71
2021/06/08 05:40:06;;;;;;;8.98;7.32;;;;;;;;;;5058108;28;20292;-72
2021/06/08 05:42:46;;;;;;;6.75;6.13;;;;;;;;;;5036106;28;20237;-71
2021/06/08 05:45:11;;;;;;;7.43;6.13;;;;;;;;;;5063142;28;20711;-70
2021/06/08 05:47:37;;;;;;;7.70;5.82;;;;;;;;;;5057955;28;20557;-71
2021/06/08 05:50:02;;;;;;;6.47;5.28;;;;;;;;;;5062783;28;20177;-72
2021/06/08 05:52:28;;;;;;;5.50;5.00;;;;;;;;;;5062899;28;20631;-71
2021/06/08 05:54:53;;;;;;;7.65;5.55;;;;;;;;;;5068019;28;20227;-71
2021/06/08 05:57:18;;;;;;;6.95;5.53;;;;;;;;;;5066392;28;20223;-73
2021/06/08 05:59:44;;;;;;;6.65;6.05;;;;;;;;;;5060001;28;20193;-72
2021/06/08 06:02:12;;;;;;;5.88;5.18;;;;;;;;;;5057037;28;20292;-73
2021/06/08 06:04:38;;;;;;;6.60;4.72;;;;;;;;;;5049689;28;20204;-72
2021/06/08 06:07:03;;;;;;;5.72;5.10;;;;;;;;;;5061133;28;20165;-72
2021/06/08 06:09:28;;;;;;;6.63;5.60;;;;;;;;;;5051474;28;20213;-73
2021/06/08 06:11:54;;;;;;;5.32;4.80;;;;;;;;;;5067859;28;20246;-72
2021/06/08 06:14:23;;;;;;;5.35;4.50;;;;;;;;;;5058659;28;20201;-72
2021/06/08 06:16:52;;;;;;;7.43;4.63;;;;;;;;;;5059471;28;20190;-71
2021/06/08 06:19:18;;;;;;;4.47;3.90;;;;;;;;;;5064474;28;20173;-73
2021/06/08 06:21:44;;;;;;;3.97;3.38;;;;;;;;;;5057540;28;20205;-72
2021/06/08 06:24:10;;;;;;;3.47;3.17;;;;;;;;;;5055210;28;20263;-72
2021/06/08 06:26:35;;;;;;;4.00;3.08;;;;;;;;;;5056859;28;20672;-72
2021/06/08 06:29:01;;;;;;;5.35;3.20;;;;;;;;;;5062288;28;20715;-72
2021/06/08 06:31:26;;;;;;;4.35;3.40;;;;;;;;;;5054782;28;20595;-72
2021/06/08 06:33:55;;;;;;;4.75;4.30;;;;;;;;;;5056570;28;20209;-72
2021/06/08 06:36:21;;;;;;;3.97;3.10;;;;;;;;;;5058533;28;20177;-72
2021/06/08 06:38:48;;;;;;;4.15;3.40;;;;;;;;;;5058263;28;20802;-71
2021/06/08 06:41:14;;;;;;;5.68;3.13;;;;;;;;;;5059553;28;20215;-72
2021/06/08 06:43:42;;;;;;;4.47;3.20;;;;;;;;;;5056423;28;20867;-72
2021/06/08 06:46:07;;;;;;;5.13;3.22;;;;;;;;;;5063795;28;20177;-73
2021/06/08 06:48:32;;;;;;;4.20;3.60;;;;;;;;;;5073165;28;20258;-72
2021/06/08 06:50:58;;;;;;;5.18;4.00;;;;;;;;;;5066977;28;20184;-71
2021/06/08 06:53:23;;;;;;;7.13;3.78;;;;;;;;;;5057857;28;20709;-72
2021/06/08 06:55:49;;;;;;;4.90;3.25;;;;;;;;;;5061467;28;20189;-72
2021/06/08 06:58:18;;;;;;;3.42;3.05;;;;;;;;;;5055949;28;23298;-72
2021/06/08 07:00:44;;;;;;;5.60;2.75;;;;;;;;;;5057619;28;20201;-73
2021/06/08 07:03:09;;;;;;;3.47;2.92;;;;;;;;;;5056559;28;20206;-70
2021/06/08 07:05:35;;;;;;;4.88;3.03;;;;;;;;;;5053962;28;20173;-74
2021/06/08 07:08:03;;;;;;;5.55;3.58;;;;;;;;;;5058566;28;20180;-75
2021/06/08 07:10:28;;;;;;;3.63;3.25;;;;;;;;;;5057307;28;20193;-74
2021/06/08 07:12:55;;;;;;;3.78;3.00;;;;;;;;;;5062415;28;20211;-75
2021/06/08 07:15:26;;;;;;;4.35;3.15;;;;;;;;;;5057529;28;20177;-75
2021/06/08 07:17:51;;;;;;;4.78;3.45;;;;;;;;;;5057346;28;20185;-74
2021/06/08 07:20:18;;;;;;;4.78;2.85;;;;;;;;;;5060773;28;20203;-74
2021/06/08 07:22:43;;;;;;;4.47;2.67;;;;;;;;;;5059241;28;20204;-74
2021/06/08 07:25:12;;;;;;;2.83;2.60;;;;;;;;;;5059646;28;20533;-75
2021/06/08 07:27:37;;;;;;;3.58;2.65;;;;;;;;;;5062277;28;20173;-74
2021/06/08 07:30:04;;;;;;;2.85;2.53;;;;;;;;;;5065482;28;20203;-74
2021/06/08 07:32:42;;;;;;;2.42;1.98;;;;;;;;;;5041775;28;20667;-74
2021/06/08 07:35:10;;;;;;;2.28;2.08;;;;;;;;;;5050122;28;20656;-74
2021/06/08 07:37:39;;;;;;;5.50;3.10;;;;;;;;;;5051520;28;20952;-73
2021/06/08 07:40:06;;;;;;;3.17;2.78;;;;;;;;;;5053971;28;20282;-74
2021/06/08 07:42:39;;;;;;;3.38;2.80;;;;;;;;;;5056433;28;20556;-75
2021/06/08 07:45:06;;;;;;;3.65;2.53;;;;;;;;;;5047027;28;20216;-75
2021/06/08 07:47:32;;;;;;;4.47;2.15;;;;;;;;;;5051981;28;20268;-74
2021/06/08 07:49:59;;;;;;;3.00;2.20;;;;;;;;;;5058671;28;20617;-74
2021/06/08 07:52:25;;;;;;;2.80;2.22;;;;;;;;;;5056759;28;20176;-74
2021/06/08 07:54:50;;;;;;;4.85;2.10;;;;;;;;;;5053493;28;20233;-74
2021/06/08 07:57:17;;;;;;;3.60;2.30;;;;;;;;;;5053234;28;20173;-73
2021/06/08 07:59:42;;;;;;;2.53;1.80;;;;;;;;;;5054114;28;20185;-74
2021/06/08 08:02:09;;;;;;;5.45;1.90;;;;;;;;;;5050808;28;20215;-74
2021/06/08 08:04:38;;;;;;;3.55;1.88;;;;;;;;;;5062246;28;20208;-73
2021/06/08 08:07:03;;;;;;;3.70;1.63;;;;;;;;;;5054380;28;20597;-73
2021/06/08 08:09:30;;;;;;;3.60;2.33;;;;;;;;;;5056713;28;20197;-74
2021/06/08 08:11:55;;;;;;;3.22;2.20;;;;;;;;;;5057723;28;20184;-73
2021/06/08 08:14:24;;;;;;;3.60;1.80;;;;;;;;;;5053298;28;20212;-74
2021/06/08 08:16:50;;;;;;;2.47;1.15;;;;;;;;;;5053930;28;20240;-74
2021/06/08 08:19:16;;;;;;;3.35;1.40;;;;;;;;;;5048955;28;20268;-74
2021/06/08 08:21:42;;;;;;;1.55;1.20;;;;;;;;;;5055875;28;20193;-73
2021/06/08 08:24:07;;;;;;;1.33;0.82;;;;;;;;;;5064309;28;20200;-74
2021/06/08 08:26:32;;;;;;;1.90;0.98;;;;;;;;;;5052527;28;20189;-74
2021/06/08 08:28:59;;;;;;;1.67;0.83;;;;;;;;;;5054356;28;20315;-73
2021/06/08 08:31:27;;;;;;;1.42;0.90;;;;;;;;;;5058268;28;20473;-72
2021/06/08 08:33:53;;;;;;;1.10;0.70;;;;;;;;;;5064731;28;20204;-73
2021/06/08 08:36:18;;;;;;;1.35;0.75;;;;;;;;;;5056798;28;20664;-73
2021/06/08 08:38:43;;;;;;;1.23;0.70;;;;;;;;;;5054277;28;20638;-73
2021/06/08 08:41:09;;;;;;;0.98;0.60;;;;;;;;;;5064003;28;20232;-73
2021/06/08 08:43:34;;;;;;;3.15;0.95;;;;;;;;;;5056226;28;20550;-73
2021/06/08 08:45:59;;;;;;;2.33;0.80;;;;;;;;;;5055001;28;20173;-74
2021/06/08 08:48:25;;;;;;;1.48;0.80;;;;;;;;;;5055512;28;20422;-76
2021/06/08 08:50:50;;;;;;;2.73;0.83;;;;;;;;;;5057693;28;20654;-73
2021/06/08 08:53:18;;;;;;;1.20;0.90;;;;;;;;;;5053575;28;21078;-72
2021/06/08 08:55:45;;;;;;;1.45;1.13;;;;;;;;;;5052978;28;20241;-73
2021/06/08 08:58:11;;;;;;;2.88;0.93;;;;;;;;;;5060692;28;20184;-73
2021/06/08 09:00:36;;;;;;;1.33;0.90;;;;;;;;;;5061680;28;20677;-73
2021/06/08 09:03:03;;;;;;;1.63;0.67;;;;;;;;;;5055466;28;20696;-74
2021/06/08 09:05:34;;;;;;;2.72;1.30;;;;;;;;;;5054845;28;20353;-73
2021/06/08 09:08:00;;;;;;;4.43;1.40;;;;;;;;;;5048973;28;20758;-74
2021/06/08 09:10:25;;;;;;;1.38;1.00;;;;;;;;;;5056230;28;20349;-74
2021/06/08 09:12:50;;;;;;;2.55;1.27;;;;;;;;;;5065324;28;20695;-73
2021/06/08 09:15:16;;;;;;;2.63;1.13;;;;;;;;;;5060634;28;20199;-73
2021/06/08 09:17:41;;;;;;;1.45;0.95;;;;;;;;;;5053279;28;20235;-73
2021/06/08 09:20:10;;;;;;;3.65;1.15;;;;;;;;;;5058242;28;20239;-73
2021/06/08 09:22:51;;;;;;;3.05;1.08;;;;;;;;;;5055899;28;21319;-72
2021/06/08 09:25:38;;;;;;;2.72;1.27;;;;;;;;;;5051723;28;20180;-74
2021/06/08 09:28:17;;;;;;;2.60;1.35;;;;;;;;;;5058435;28;20177;-74
2021/06/08 09:30:42;;;;;;;1.95;1.20;;;;;;;;;;5062573;28;20557;-74
2021/06/08 09:33:18;;;;;;;2.22;1.23;;;;;;;;;;5052758;28;20196;-73
2021/06/08 09:36:03;;;;;;;2.08;1.20;;;;;;;;;;5060798;28;20188;-74
2021/06/08 09:38:34;;;;;;;3.05;1.45;;;;;;;;;;5052233;28;20205;-74
2021/06/08 09:41:14;;;;;;;2.03;1.17;;;;;;;;;;5057062;28;20199;-73
2021/06/08 09:43:47;;;;;;;2.70;1.58;;;;;;;;;;5054618;28;20554;-74
2021/06/08 09:46:12;;;;;;;2.30;1.38;;;;;;;;;;5053087;28;20181;-74
2021/06/08 09:48:48;;;;;;;1.83;1.43;;;;;;;;;;5054010;28;20180;-75
2021/06/08 09:51:13;;;;;;;1.70;1.50;;;;;;;;;;5055758;28;20850;-74
2021/06/08 09:53:39;;;;;;;2.07;1.20;;;;;;;;;;5049779;28;20217;-72
2021/06/08 09:56:06;;;;;;;1.57;1.33;;;;;;;;;;5062992;28;20209;-74
2021/06/08 09:58:32;;;;;;;1.67;1.27;;;;;;;;;;5064708;28;20442;-74
2021/06/08 10:01:33;;;;;;;1.70;1.60;;;;;;;;;;5057208;28;20205;-74
2021/06/08 10:04:01;;;;;;;2.10;1.27;;;;;;;;;;5047521;28;20201;-73
2021/06/08 10:06:36;;;;;;;1.40;1.20;;;;;;;;;;5055856;28;20181;-74
2021/06/08 10:09:04;;;;;;;1.83;1.17;;;;;;;;;;5055751;28;20176;-74
2021/06/08 10:11:34;;;;;;;2.72;1.65;;;;;;;;;;5057472;28;20251;-74
2021/06/08 10:14:13;;;;;;;2.85;1.60;;;;;;;;;;5056890;28;20204;-74
2021/06/08 10:16:38;;;;;;;2.13;1.50;;;;;;;;;;5056006;28;20241;-74
2021/06/08 10:19:04;;;;;;;2.92;1.10;;;;;;;;;;5052105;28;20180;-74
2021/06/08 10:21:33;;;;;;;2.05;1.48;;;;;;;;;;5059518;28;20287;-74
2021/06/08 10:24:06;;;;;;;1.50;1.40;;;;;;;;;;5060672;28;20188;-74
2021/06/08 10:26:34;;;;;;;1.52;1.20;;;;;;;;;;5053932;28;20177;-73
2021/06/08 10:29:04;;;;;;;3.35;1.33;;;;;;;;;;5052981;28;20231;-74
2021/06/08 10:31:30;;;;;;;1.33;0.70;;;;;;;;;;5054891;28;20208;-74
2021/06/08 10:33:55;;;;;;;1.33;1.10;;;;;;;;;;5050897;28;20296;-75
2021/06/08 10:36:23;;;;;;;1.55;0.88;;;;;;;;;;5051139;28;20253;-74
2021/06/08 10:38:48;;;;;;;2.15;1.23;;;;;;;;;;5056331;28;20192;-74
2021/06/08 10:41:13;;;;;;;2.00;1.30;;;;;;;;;;5056894;28;20262;-74
2021/06/08 10:43:38;;;;;;;2.40;1.40;;;;;;;;;;5057018;28;20200;-74
2021/06/08 10:46:04;;;;;;;2.40;1.30;;;;;;;;;;5053327;28;20444;-72
2021/06/08 10:48:38;;;;;;;1.15;1.05;;;;;;;;;;5058903;28;20177;-74
2021/06/08 10:51:11;;;;;;;3.08;0.90;;;;;;;;;;5055510;28;21185;-74
2021/06/08 10:53:38;;;;;;;2.75;0.93;;;;;;;;;;5052482;28;20620;-73
2021/06/08 10:56:18;;;;;;;1.00;0.85;;;;;;;;;;5056972;28;20310;-73
2021/06/08 10:58:46;;;;;;;1.58;0.90;;;;;;;;;;5054957;28;20266;-73
2021/06/08 11:01:29;;;;;;;0.80;0.70;;;;;;;;;;5056670;28;20255;-73
2021/06/08 11:03:55;;;;;;;1.88;1.10;;;;;;;;;;5055199;28;20254;-73
2021/06/08 11:06:39;;;;;;;1.98;0.80;;;;;;;;;;5056120;28;20937;-74
2021/06/08 11:09:08;;;;;;;1.83;0.80;;;;;;;;;;5054279;28;20256;-74
2021/06/08 11:11:41;;;;;;;2.50;0.85;;;;;;;;;;5059071;28;20282;-74
2021/06/08 11:14:06;;;;;;;2.53;1.10;;;;;;;;;;5056329;28;20743;-73
2021/06/08 11:16:32;;;;;;;1.73;1.40;;;;;;;;;;5056175;28;20185;-74
2021/06/08 11:18:57;;;;;;;2.17;1.20;;;;;;;;;;5059305;28;20183;-74
2021/06/08 11:21:23;;;;;;;2.35;1.20;;;;;;;;;;5053823;28;20714;-73
2021/06/08 11:23:48;;;;;;;2.08;1.20;;;;;;;;;;5053728;28;20274;-73
2021/06/08 11:26:15;;;;;;;3.83;1.37;;;;;;;;;;5057030;28;20544;-73
2021/06/08 11:28:51;;;;;;;4.57;1.17;;;;;;;;;;5059421;28;20196;-73
2021/06/08 11:31:17;;;;;;;2.22;0.93;;;;;;;;;;5054205;28;20186;-74
2021/06/08 11:33:44;;;;;;;2.83;1.20;;;;;;;;;;5062041;28;20199;-74
2021/06/08 11:36:18;;;;;;;2.45;1.15;;;;;;;;;;5057034;28;20872;-74
2021/06/08 11:38:43;;;;;;;1.73;0.90;;;;;;;;;;5063117;28;21010;-74
2021/06/08 11:41:09;;;;;;;1.10;1.00;;;;;;;;;;5063169;28;20321;-74
2021/06/08 11:43:34;;;;;;;3.13;1.10;;;;;;;;;;5056258;28;20596;-74
2021/06/08 11:46:03;;;;;;;1.83;0.95;;;;;;;;;;5059942;28;20183;-74
2021/06/08 11:48:32;;;;;;;2.08;1.10;;;;;;;;;;5055484;28;20542;-74
2021/06/08 11:51:00;;;;;;;2.05;0.80;;;;;;;;;;5055828;28;20223;-74
2021/06/08 11:53:25;;;;;;;1.80;1.25;;;;;;;;;;5050457;28;20716;-74
2021/06/08 11:56:07;;;;;;;1.85;1.08;;;;;;;;;;5053162;28;20665;-74
2021/06/08 11:58:33;;;;;;;3.30;1.40;;;;;;;;;;5052188;28;20175;-74
2021/06/08 12:00:59;;;;;;;2.28;0.68;;;;;;;;;;5061057;28;20207;-74
2021/06/08 12:03:24;;;;;;;1.92;1.33;;;;;;;;;;5056548;28;20192;-74
2021/06/08 12:05:49;;;;;;;3.65;1.10;;;;;;;;;;5064320;28;20546;-74
2021/06/08 12:08:30;;;;;;;2.97;1.50;;;;;;;;;;5063311;28;20544;-75
2021/06/08 12:10:56;;;;;;;2.28;1.15;;;;;;;;;;5057988;28;20180;-75
2021/06/08 12:13:30;;;;;;;2.50;1.23;;;;;;;;;;5054515;28;20210;-75
2021/06/08 12:15:56;;;;;;;1.73;1.13;;;;;;;;;;5058693;28;20192;-75
2021/06/08 12:18:28;;;;;;;1.92;1.10;;;;;;;;;;5065346;28;20192;-74
2021/06/08 12:20:53;;;;;;;1.08;0.98;;;;;;;;;;5055290;28;20216;-75
2021/06/08 12:23:32;;;;;;;3.53;1.00;;;;;;;;;;5056842;28;20205;-75
2021/06/08 12:26:18;;;;;;;2.15;1.00;;;;;;;;;;5064617;28;20535;-75
2021/06/08 12:29:00;;;;;;;1.45;1.10;;;;;;;;;;5057925;28;20177;-75
2021/06/08 12:31:26;;;;;;;3.63;1.30;;;;;;;;;;5057175;28;20185;-76
2021/06/08 12:33:51;;;;;;;1.43;1.00;;;;;;;;;;5064970;28;20204;-74
2021/06/08 12:36:16;;;;;;;4.23;1.50;;;;;;;;;;5062833;28;20191;-75
2021/06/08 12:38:48;;;;;;;1.95;1.40;;;;;;;;;;5066809;28;20230;-76
2021/06/08 12:41:14;;;;;;;1.58;1.35;;;;;;;;;;5066657;28;20228;-76
2021/06/08 12:43:43;;;;;;;2.00;1.40;;;;;;;;;;5061159;28;20227;-75
2021/06/08 12:46:08;;;;;;;3.00;1.40;;;;;;;;;;5060389;28;20192;-75
2021/06/08 12:48:33;;;;;;;1.20;0.90;;;;;;;;;;5059030;28;20185;-75
2021/06/08 12:50:58;;;;;;;1.97;1.37;;;;;;;;;;5065039;28;20191;-75
2021/06/08 12:53:25;;;;;;;1.37;1.27;;;;;;;;;;5066274;28;20626;-76
2021/06/08 12:55:51;;;;;;;1.45;1.15;;;;;;;;;;5063535;28;20718;-75
2021/06/08 12:58:17;;;;;;;2.25;1.58;;;;;;;;;;5058648;28;20193;-75
2021/06/08 13:00:43;;;;;;;4.47;1.30;;;;;;;;;;5062356;28;20677;-74
2021/06/08 13:03:08;;;;;;;1.98;1.42;;;;;;;;;;5058511;28;20247;-75
2021/06/08 13:05:35;;;;;;;2.58;1.50;;;;;;;;;;5059336;28;20228;-75
2021/06/08 13:08:01;;;;;;;3.00;1.50;;;;;;;;;;5057019;28;20229;-74
2021/06/08 13:10:28;;;;;;;2.40;1.42;;;;;;;;;;5053786;28;20627;-75
2021/06/08 13:12:54;;;;;;;2.00;1.67;;;;;;;;;;5062514;28;20195;-74
2021/06/08 13:15:28;;;;;;;2.45;1.70;;;;;;;;;;5057923;28;20195;-74
2021/06/08 13:18:03;;;;;;;3.67;2.22;;;;;;;;;;5058128;28;20301;-75
2021/06/08 13:20:29;;;;;;;4.30;1.80;;;;;;;;;;5055741;28;20189;-75
2021/06/08 13:22:55;;;;;;;4.97;1.50;;;;;;;;;;5058686;28;20196;-75
2021/06/08 13:25:22;;;;;;;3.75;2.00;;;;;;;;;;5057730;28;20724;-76
2021/06/08 13:27:48;;;;;;;2.55;2.35;;;;;;;;;;5058894;28;20172;-76
2021/06/08 13:30:20;;;;;;;2.43;1.93;;;;;;;;;;5057043;28;20181;-76
2021/06/08 13:32:54;;;;;;;3.47;1.63;;;;;;;;;;5051123;28;20438;-73
2021/06/08 13:35:19;;;;;;;3.13;2.42;;;;;;;;;;5050804;28;20182;-74
2021/06/08 13:37:45;;;;;;;3.20;1.93;;;;;;;;;;5060509;28;20218;-73
2021/06/08 13:40:11;;;;;;;3.03;2.72;;;;;;;;;;5059047;28;20230;-73
2021/06/08 13:42:37;;;;;;;3.15;2.30;;;;;;;;;;5056028;28;20205;-74
2021/06/08 13:45:04;;;;;;;3.42;2.10;;;;;;;;;;5058383;28;20649;-73
2021/06/08 13:47:33;;;;;;;2.47;2.28;;;;;;;;;;5055202;28;20709;-74
2021/06/08 13:49:58;;;;;;;3.78;2.25;;;;;;;;;;5063805;28;20646;-75
2021/06/08 13:52:44;;;;;;;2.63;2.42;;;;;;;;;;5049873;28;20238;-75
2021/06/08 13:55:10;;;;;;;3.63;2.28;;;;;;;;;;5053089;28;20279;-74
2021/06/08 13:57:42;;;;;;;2.25;2.05;;;;;;;;;;5056810;28;20188;-73
2021/06/08 14:00:17;;;;;;;2.58;1.77;;;;;;;;;;5057055;28;20187;-74
2021/06/08 14:02:44;;;;;;;3.70;2.40;;;;;;;;;;5055726;28;20203;-75
2021/06/08 14:05:21;;;;;;;3.33;1.98;;;;;;;;;;5058946;28;20180;-74
2021/06/08 14:07:46;;;;;;;3.67;2.25;;;;;;;;;;5056316;28;20172;-75
2021/06/08 14:10:11;;;;;;;3.67;2.27;;;;;;;;;;5058647;28;20178;-75
2021/06/08 14:12:37;;;;;;;3.47;2.45;;;;;;;;;;5053380;28;20947;-74
2021/06/08 14:15:05;;;;;;;2.63;2.42;;;;;;;;;;5053408;28;20173;-74
2021/06/08 14:17:31;;;;;;;1.95;1.85;;;;;;;;;;5053601;28;20193;-76
2021/06/08 14:19:56;;;;;;;3.23;2.30;;;;;;;;;;5053661;28;20185;-73
2021/06/08 14:22:21;;;;;;;2.63;2.43;;;;;;;;;;5054439;28;20216;-74
2021/06/08 14:24:46;;;;;;;2.53;2.33;;;;;;;;;;5049089;28;20761;-74
2021/06/08 14:27:13;;;;;;;2.75;2.55;;;;;;;;;;5062331;28;20183;-73
2021/06/08 14:29:38;;;;;;;3.97;2.60;;;;;;;;;;5052172;28;20184;-73
2021/06/08 14:32:04;;;;;;;3.55;2.42;;;;;;;;;;5056995;28;20222;-74
2021/06/08 14:34:29;;;;;;;6.18;2.10;;;;;;;;;;5058154;28;20686;-73